Paderborn, Germany

1:08 PM CET on November 28, 2014 (GMT +0100)
Paderborn-Lippstadt | Change Station
CLOSE
Current Station
Airport
Location: Paderborn,
Elevation: 699 ft
Nearby Weather Stations

Elev 699 ft 51.61 °N, 8.62 °E | Updated 18 minutes ago

Partly Cloudy
Partly Cloudy
39 °F
Feels Like 30 °F
N
18
Wind Variable Wind from SE
Gusts 30 mph

Today
High -- | Low -- °F
--% Chance of Precip.
Yesterday
High -- | Low -- °F
Precip. -- in
8:04 AM 4:21 PM
Waxing Crescent, 39% visible
Pressure 29.86 in
Visibility 6.2 miles
Clouds Few 1000 ft
Windchill 30 °F
Dew Point 34 °F
Humidity 81%
Rainfall 0.00 in
Snow Depth Not available.
UV 1 out of 12
Pollen Not available.
Air Quality Not available.
Flu Activity Not available.
METAR EDLP 281150Z 14016G26KT 9999 FEW010 04/01 Q1011 RMK ATIS PAP

More Conditions Fewer Conditions

Pressure 29.86 in
Visibility 6.2 miles
Clouds Few 1000 ft
Windchill 30 °F
Dew Point 34 °F
Humidity 81%
Rainfall 0.00 in
Snow Depth Not available.
UV 1 out of 12
Pollen Not available.
Air Quality Not available.
Flu Activity Not available.
METAR EDLP 281150Z 14016G26KT 9999 FEW010 04/01 Q1011 RMK ATIS PAP

More Conditions Fewer Conditions

10-Day Weather Forecast

Almanac

Astronomy

Nov. 28, 2014 Rise Set
Actual Time
Civil Twilight
Nautical Twilight
Astronomical Twilight
Moon
Length of Visible Light
Length of Day
Tomorrow will be .
, % of the Moon is Illuminated

Today's Extremes

Country Highs Country Lows

Community

WunderPhotos

Upload Photos

1,774,198 photos uploaded!

WunderBlogs® & News

Nearby

Air Quality

  Air Quality AQ Index Pollutant
Not available.

Snow Depth

Station Depth Elevation

Earthquake Activity

City Distance Mag. Time & Date
Minimum magnitude displayed is 2.5.

Coastal Water Temperatures

Place Temperature

Nearby Weather Stations